sensor_id;sensor_type;location;lat;lon;timestamp;P1;durP1;ratioP1;P2;durP2;ratioP2
66633;SDS011;53546;52.184;5.596;2023-02-26T00:00:10;4.57;;;2.50;;
66633;SDS011;53546;52.184;5.596;2023-02-26T00:02:39;6.72;;;2.22;;
66633;SDS011;53546;52.184;5.596;2023-02-26T00:05:10;2.95;;;2.08;;
66633;SDS011;53546;52.184;5.596;2023-02-26T00:07:36;3.33;;;2.20;;
66633;SDS011;53546;52.184;5.596;2023-02-26T00:10:02;3.97;;;2.03;;
66633;SDS011;53546;52.184;5.596;2023-02-26T00:12:28;3.78;;;1.92;;
66633;SDS011;53546;52.184;5.596;2023-02-26T00:14:54;3.15;;;2.05;;
66633;SDS011;53546;52.184;5.596;2023-02-26T00:17:25;3.42;;;1.90;;
66633;SDS011;53546;52.184;5.596;2023-02-26T00:19:55;2.85;;;2.03;;
66633;SDS011;53546;52.184;5.596;2023-02-26T00:22:21;2.38;;;1.65;;
66633;SDS011;53546;52.184;5.596;2023-02-26T00:24:46;3.80;;;2.10;;
66633;SDS011;53546;52.184;5.596;2023-02-26T00:27:12;2.60;;;1.73;;
66633;SDS011;53546;52.184;5.596;2023-02-26T00:29:37;2.42;;;1.92;;
66633;SDS011;53546;52.184;5.596;2023-02-26T00:32:03;2.30;;;1.85;;
66633;SDS011;53546;52.184;5.596;2023-02-26T00:34:29;2.97;;;1.88;;
66633;SDS011;53546;52.184;5.596;2023-02-26T00:40:36;3.47;;;1.65;;
66633;SDS011;53546;52.184;5.596;2023-02-26T00:43:05;1.83;;;1.50;;
66633;SDS011;53546;52.184;5.596;2023-02-26T00:45:32;3.22;;;2.05;;
66633;SDS011;53546;52.184;5.596;2023-02-26T00:50:31;3.33;;;1.70;;
66633;SDS011;53546;52.184;5.596;2023-02-26T00:55:46;2.70;;;1.33;;
66633;SDS011;53546;52.184;5.596;2023-02-26T00:58:11;3.22;;;1.50;;
66633;SDS011;53546;52.184;5.596;2023-02-26T01:00:37;1.95;;;1.40;;
66633;SDS011;53546;52.184;5.596;2023-02-26T01:03:03;2.38;;;1.50;;
66633;SDS011;53546;52.184;5.596;2023-02-26T01:05:28;2.58;;;1.30;;
66633;SDS011;53546;52.184;5.596;2023-02-26T01:13:14;1.95;;;1.20;;
66633;SDS011;53546;52.184;5.596;2023-02-26T01:15:40;2.88;;;1.38;;
66633;SDS011;53546;52.184;5.596;2023-02-26T01:18:15;2.75;;;1.52;;
66633;SDS011;53546;52.184;5.596;2023-02-26T01:20:46;1.77;;;1.30;;
66633;SDS011;53546;52.184;5.596;2023-02-26T01:23:15;2.95;;;1.30;;
66633;SDS011;53546;52.184;5.596;2023-02-26T01:25:43;2.65;;;1.20;;
66633;SDS011;53546;52.184;5.596;2023-02-26T01:28:13;3.22;;;1.20;;
66633;SDS011;53546;52.184;5.596;2023-02-26T01:30:39;2.10;;;1.08;;
66633;SDS011;53546;52.184;5.596;2023-02-26T01:33:09;2.38;;;1.20;;
66633;SDS011;53546;52.184;5.596;2023-02-26T01:35:57;1.15;;;1.00;;
66633;SDS011;53546;52.184;5.596;2023-02-26T01:43:34;1.85;;;1.17;;
66633;SDS011;53546;52.184;5.596;2023-02-26T01:46:15;2.17;;;1.05;;
66633;SDS011;53546;52.184;5.596;2023-02-26T01:49:01;1.98;;;1.10;;
66633;SDS011;53546;52.184;5.596;2023-02-26T01:54:16;1.25;;;1.00;;
66633;SDS011;53546;52.184;5.596;2023-02-26T01:56:44;1.83;;;0.98;;
66633;SDS011;53546;52.184;5.596;2023-02-26T01:59:13;1.95;;;1.10;;
66633;SDS011;53546;52.184;5.596;2023-02-26T02:01:39;2.45;;;0.98;;
66633;SDS011;53546;52.184;5.596;2023-02-26T02:04:06;1.20;;;0.90;;
66633;SDS011;53546;52.184;5.596;2023-02-26T02:06:34;1.10;;;1.00;;
66633;SDS011;53546;52.184;5.596;2023-02-26T02:09:00;0.98;;;0.88;;
66633;SDS011;53546;52.184;5.596;2023-02-26T02:11:28;1.50;;;1.00;;
66633;SDS011;53546;52.184;5.596;2023-02-26T02:14:05;3.33;;;0.80;;
66633;SDS011;53546;52.184;5.596;2023-02-26T02:24:51;1.40;;;0.80;;
66633;SDS011;53546;52.184;5.596;2023-02-26T02:27:41;1.70;;;0.73;;
66633;SDS011;53546;52.184;5.596;2023-02-26T02:33:29;2.13;;;1.08;;
66633;SDS011;53546;52.184;5.596;2023-02-26T02:36:06;0.82;;;0.80;;
66633;SDS011;53546;52.184;5.596;2023-02-26T02:38:38;2.58;;;0.90;;
66633;SDS011;53546;52.184;5.596;2023-02-26T02:41:20;0.88;;;0.80;;
66633;SDS011;53546;52.184;5.596;2023-02-26T02:43:48;1.23;;;0.88;;
66633;SDS011;53546;52.184;5.596;2023-02-26T02:46:22;0.88;;;0.77;;
66633;SDS011;53546;52.184;5.596;2023-02-26T02:51:20;1.45;;;0.95;;
66633;SDS011;53546;52.184;5.596;2023-02-26T02:53:53;3.22;;;0.93;;
66633;SDS011;53546;52.184;5.596;2023-02-26T02:58:57;1.80;;;0.73;;
66633;SDS011;53546;52.184;5.596;2023-02-26T03:01:29;0.95;;;0.77;;
66633;SDS011;53546;52.184;5.596;2023-02-26T03:03:57;1.58;;;0.73;;
66633;SDS011;53546;52.184;5.596;2023-02-26T03:06:25;0.90;;;0.77;;
66633;SDS011;53546;52.184;5.596;2023-02-26T03:08:51;1.60;;;0.98;;
66633;SDS011;53546;52.184;5.596;2023-02-26T03:11:17;0.95;;;0.50;;
66633;SDS011;53546;52.184;5.596;2023-02-26T03:13:42;3.78;;;0.90;;
66633;SDS011;53546;52.184;5.596;2023-02-26T03:16:15;0.70;;;0.52;;
66633;SDS011;53546;52.184;5.596;2023-02-26T03:18:53;0.98;;;0.90;;
66633;SDS011;53546;52.184;5.596;2023-02-26T03:21:24;10.80;;;0.95;;
66633;SDS011;53546;52.184;5.596;2023-02-26T03:32:13;1.02;;;0.70;;
66633;SDS011;53546;52.184;5.596;2023-02-26T03:34:45;1.08;;;0.70;;
66633;SDS011;53546;52.184;5.596;2023-02-26T03:37:15;1.05;;;0.80;;
66633;SDS011;53546;52.184;5.596;2023-02-26T03:39:52;5.53;;;0.75;;
66633;SDS011;53546;52.184;5.596;2023-02-26T03:45:01;1.27;;;0.90;;
66633;SDS011;53546;52.184;5.596;2023-02-26T03:47:30;1.45;;;0.77;;
66633;SDS011;53546;52.184;5.596;2023-02-26T03:52:22;2.05;;;0.80;;
66633;SDS011;53546;52.184;5.596;2023-02-26T03:54:51;1.45;;;0.95;;
66633;SDS011;53546;52.184;5.596;2023-02-26T03:57:20;0.65;;;0.50;;
66633;SDS011;53546;52.184;5.596;2023-02-26T03:59:46;2.13;;;1.02;;
66633;SDS011;53546;52.184;5.596;2023-02-26T04:02:16;2.28;;;1.30;;
66633;SDS011;53546;52.184;5.596;2023-02-26T04:04:54;1.38;;;0.77;;
66633;SDS011;53546;52.184;5.596;2023-02-26T04:07:23;3.67;;;0.90;;
66633;SDS011;53546;52.184;5.596;2023-02-26T04:09:50;1.15;;;1.02;;
66633;SDS011;53546;52.184;5.596;2023-02-26T04:12:19;2.70;;;0.93;;
66633;SDS011;53546;52.184;5.596;2023-02-26T04:14:46;0.50;;;0.50;;
66633;SDS011;53546;52.184;5.596;2023-02-26T04:17:11;5.72;;;0.90;;
66633;SDS011;53546;52.184;5.596;2023-02-26T04:19:37;1.63;;;0.82;;
66633;SDS011;53546;52.184;5.596;2023-02-26T04:22:02;1.15;;;0.68;;
66633;SDS011;53546;52.184;5.596;2023-02-26T04:24:28;2.40;;;0.90;;
66633;SDS011;53546;52.184;5.596;2023-02-26T04:26:53;1.85;;;0.68;;
66633;SDS011;53546;52.184;5.596;2023-02-26T04:29:18;2.85;;;0.85;;
66633;SDS011;53546;52.184;5.596;2023-02-26T04:31:44;1.50;;;0.73;;
66633;SDS011;53546;52.184;5.596;2023-02-26T04:34:09;2.25;;;0.68;;
66633;SDS011;53546;52.184;5.596;2023-02-26T04:36:34;1.48;;;0.90;;
66633;SDS011;53546;52.184;5.596;2023-02-26T04:39:00;1.80;;;0.95;;
66633;SDS011;53546;52.184;5.596;2023-02-26T04:41:25;1.27;;;0.80;;
66633;SDS011;53546;52.184;5.596;2023-02-26T04:43:51;2.38;;;0.75;;
66633;SDS011;53546;52.184;5.596;2023-02-26T04:46:16;1.75;;;0.73;;
66633;SDS011;53546;52.184;5.596;2023-02-26T04:48:41;1.05;;;0.60;;
66633;SDS011;53546;52.184;5.596;2023-02-26T04:51:07;4.63;;;0.80;;
66633;SDS011;53546;52.184;5.596;2023-02-26T04:53:32;2.05;;;0.82;;
66633;SDS011;53546;52.184;5.596;2023-02-26T04:55:58;2.25;;;0.90;;
66633;SDS011;53546;52.184;5.596;2023-02-26T04:58:23;1.52;;;0.60;;
66633;SDS011;53546;52.184;5.596;2023-02-26T05:00:49;10.10;;;0.98;;
66633;SDS011;53546;52.184;5.596;2023-02-26T05:03:15;1.13;;;0.68;;
66633;SDS011;53546;52.184;5.596;2023-02-26T05:05:40;0.60;;;0.45;;
66633;SDS011;53546;52.184;5.596;2023-02-26T05:08:06;1.95;;;0.75;;
66633;SDS011;53546;52.184;5.596;2023-02-26T05:10:31;1.08;;;0.82;;
66633;SDS011;53546;52.184;5.596;2023-02-26T05:12:57;0.70;;;0.70;;
66633;SDS011;53546;52.184;5.596;2023-02-26T05:15:22;0.57;;;0.50;;
66633;SDS011;53546;52.184;5.596;2023-02-26T05:17:47;0.70;;;0.60;;
66633;SDS011;53546;52.184;5.596;2023-02-26T05:20:13;0.40;;;0.40;;
66633;SDS011;53546;52.184;5.596;2023-02-26T05:22:39;0.68;;;0.50;;
66633;SDS011;53546;52.184;5.596;2023-02-26T05:25:05;1.50;;;0.52;;
66633;SDS011;53546;52.184;5.596;2023-02-26T05:27:31;1.73;;;0.70;;
66633;SDS011;53546;52.184;5.596;2023-02-26T05:29:57;2.17;;;0.80;;
66633;SDS011;53546;52.184;5.596;2023-02-26T05:32:22;1.15;;;0.57;;
66633;SDS011;53546;52.184;5.596;2023-02-26T05:34:48;1.48;;;0.70;;
66633;SDS011;53546;52.184;5.596;2023-02-26T05:37:13;2.03;;;0.63;;
66633;SDS011;53546;52.184;5.596;2023-02-26T05:39:38;0.80;;;0.47;;
66633;SDS011;53546;52.184;5.596;2023-02-26T05:42:05;1.40;;;0.47;;
66633;SDS011;53546;52.184;5.596;2023-02-26T05:44:31;0.70;;;0.50;;
66633;SDS011;53546;52.184;5.596;2023-02-26T05:46:57;1.08;;;0.60;;
66633;SDS011;53546;52.184;5.596;2023-02-26T05:49:22;2.05;;;0.88;;
66633;SDS011;53546;52.184;5.596;2023-02-26T05:51:48;0.73;;;0.70;;
66633;SDS011;53546;52.184;5.596;2023-02-26T05:54:13;1.17;;;0.63;;
66633;SDS011;53546;52.184;5.596;2023-02-26T05:56:38;3.53;;;0.80;;
66633;SDS011;53546;52.184;5.596;2023-02-26T05:59:04;2.88;;;1.02;;
66633;SDS011;53546;52.184;5.596;2023-02-26T06:01:29;0.70;;;0.40;;
66633;SDS011;53546;52.184;5.596;2023-02-26T06:03:55;1.67;;;0.80;;
66633;SDS011;53546;52.184;5.596;2023-02-26T06:06:20;1.27;;;0.57;;
66633;SDS011;53546;52.184;5.596;2023-02-26T06:08:46;1.75;;;0.90;;
66633;SDS011;53546;52.184;5.596;2023-02-26T06:11:12;1.95;;;0.80;;
66633;SDS011;53546;52.184;5.596;2023-02-26T06:13:37;2.38;;;0.70;;
66633;SDS011;53546;52.184;5.596;2023-02-26T06:16:03;0.70;;;0.52;;
66633;SDS011;53546;52.184;5.596;2023-02-26T06:18:29;3.33;;;0.63;;
66633;SDS011;53546;52.184;5.596;2023-02-26T06:20:56;1.52;;;0.70;;
66633;SDS011;53546;52.184;5.596;2023-02-26T06:23:21;1.23;;;0.80;;
66633;SDS011;53546;52.184;5.596;2023-02-26T06:25:48;1.30;;;0.50;;
66633;SDS011;53546;52.184;5.596;2023-02-26T06:28:14;0.50;;;0.50;;
66633;SDS011;53546;52.184;5.596;2023-02-26T06:30:40;1.65;;;0.65;;
66633;SDS011;53546;52.184;5.596;2023-02-26T06:33:05;1.10;;;0.77;;
66633;SDS011;53546;52.184;5.596;2023-02-26T06:35:31;0.95;;;0.70;;
66633;SDS011;53546;52.184;5.596;2023-02-26T06:37:56;0.93;;;0.65;;
66633;SDS011;53546;52.184;5.596;2023-02-26T06:40:21;1.02;;;0.68;;
66633;SDS011;53546;52.184;5.596;2023-02-26T06:42:47;2.83;;;1.45;;
66633;SDS011;53546;52.184;5.596;2023-02-26T06:45:12;4.43;;;0.70;;
66633;SDS011;53546;52.184;5.596;2023-02-26T06:47:38;1.85;;;0.70;;
66633;SDS011;53546;52.184;5.596;2023-02-26T06:50:04;1.08;;;0.68;;
66633;SDS011;53546;52.184;5.596;2023-02-26T06:52:30;1.50;;;0.77;;
66633;SDS011;53546;52.184;5.596;2023-02-26T06:54:55;1.40;;;0.63;;
66633;SDS011;53546;52.184;5.596;2023-02-26T06:57:21;1.05;;;0.70;;
66633;SDS011;53546;52.184;5.596;2023-02-26T06:59:46;2.10;;;0.80;;
66633;SDS011;53546;52.184;5.596;2023-02-26T07:02:15;1.60;;;0.80;;
66633;SDS011;53546;52.184;5.596;2023-02-26T07:04:42;0.95;;;0.75;;
66633;SDS011;53546;52.184;5.596;2023-02-26T07:07:08;1.08;;;0.75;;
66633;SDS011;53546;52.184;5.596;2023-02-26T07:09:33;1.55;;;0.70;;
66633;SDS011;53546;52.184;5.596;2023-02-26T07:11:59;2.30;;;0.65;;
66633;SDS011;53546;52.184;5.596;2023-02-26T07:14:24;1.13;;;0.70;;
66633;SDS011;53546;52.184;5.596;2023-02-26T07:16:49;1.00;;;0.68;;
66633;SDS011;53546;52.184;5.596;2023-02-26T07:19:15;1.00;;;0.70;;
66633;SDS011;53546;52.184;5.596;2023-02-26T07:21:40;1.30;;;0.73;;
66633;SDS011;53546;52.184;5.596;2023-02-26T07:24:06;2.92;;;1.30;;
66633;SDS011;53546;52.184;5.596;2023-02-26T07:26:32;6.65;;;1.95;;
66633;SDS011;53546;52.184;5.596;2023-02-26T07:28:57;6.43;;;1.73;;
66633;SDS011;53546;52.184;5.596;2023-02-26T07:31:22;5.32;;;1.60;;
66633;SDS011;53546;52.184;5.596;2023-02-26T07:33:48;6.38;;;1.52;;
66633;SDS011;53546;52.184;5.596;2023-02-26T07:36:13;6.47;;;1.88;;
66633;SDS011;53546;52.184;5.596;2023-02-26T07:38:39;13.55;;;1.77;;
66633;SDS011;53546;52.184;5.596;2023-02-26T07:41:04;4.45;;;2.00;;
66633;SDS011;53546;52.184;5.596;2023-02-26T07:43:29;3.97;;;1.60;;
66633;SDS011;53546;52.184;5.596;2023-02-26T07:45:55;7.05;;;1.90;;
66633;SDS011;53546;52.184;5.596;2023-02-26T07:48:20;7.20;;;2.10;;
66633;SDS011;53546;52.184;5.596;2023-02-26T07:50:46;15.10;;;1.60;;
66633;SDS011;53546;52.184;5.596;2023-02-26T07:53:11;3.13;;;1.35;;
66633;SDS011;53546;52.184;5.596;2023-02-26T07:55:37;4.10;;;1.52;;
66633;SDS011;53546;52.184;5.596;2023-02-26T07:58:02;3.95;;;1.52;;
66633;SDS011;53546;52.184;5.596;2023-02-26T08:00:27;3.85;;;1.20;;
66633;SDS011;53546;52.184;5.596;2023-02-26T08:02:53;5.13;;;1.55;;
66633;SDS011;53546;52.184;5.596;2023-02-26T08:05:18;3.65;;;1.45;;
66633;SDS011;53546;52.184;5.596;2023-02-26T08:07:43;7.13;;;1.75;;
66633;SDS011;53546;52.184;5.596;2023-02-26T08:10:09;4.30;;;1.67;;
66633;SDS011;53546;52.184;5.596;2023-02-26T08:12:35;2.88;;;1.20;;
66633;SDS011;53546;52.184;5.596;2023-02-26T08:15:00;4.53;;;1.42;;
66633;SDS011;53546;52.184;5.596;2023-02-26T08:17:26;2.58;;;1.23;;
66633;SDS011;53546;52.184;5.596;2023-02-26T08:19:52;3.30;;;1.10;;
66633;SDS011;53546;52.184;5.596;2023-02-26T08:22:17;3.30;;;1.27;;
66633;SDS011;53546;52.184;5.596;2023-02-26T08:24:43;4.95;;;1.20;;
66633;SDS011;53546;52.184;5.596;2023-02-26T08:27:09;4.55;;;1.63;;
66633;SDS011;53546;52.184;5.596;2023-02-26T08:29:35;3.08;;;1.17;;
66633;SDS011;53546;52.184;5.596;2023-02-26T08:32:01;4.43;;;1.30;;
66633;SDS011;53546;52.184;5.596;2023-02-26T08:34:26;3.45;;;1.30;;
66633;SDS011;53546;52.184;5.596;2023-02-26T08:36:51;3.35;;;1.15;;
66633;SDS011;53546;52.184;5.596;2023-02-26T08:39:17;3.85;;;1.30;;
66633;SDS011;53546;52.184;5.596;2023-02-26T08:41:42;5.18;;;1.10;;
66633;SDS011;53546;52.184;5.596;2023-02-26T08:44:07;1.27;;;0.82;;
66633;SDS011;53546;52.184;5.596;2023-02-26T08:46:33;4.70;;;1.05;;
66633;SDS011;53546;52.184;5.596;2023-02-26T08:48:58;8.57;;;1.58;;
66633;SDS011;53546;52.184;5.596;2023-02-26T08:51:24;6.05;;;2.05;;
66633;SDS011;53546;52.184;5.596;2023-02-26T08:53:49;12.85;;;3.92;;
66633;SDS011;53546;52.184;5.596;2023-02-26T08:56:15;21.27;;;4.45;;
66633;SDS011;53546;52.184;5.596;2023-02-26T08:58:40;14.18;;;3.38;;
66633;SDS011;53546;52.184;5.596;2023-02-26T09:01:06;10.57;;;3.10;;
66633;SDS011;53546;52.184;5.596;2023-02-26T09:03:32;10.43;;;3.05;;
66633;SDS011;53546;52.184;5.596;2023-02-26T09:05:58;10.63;;;2.70;;
66633;SDS011;53546;52.184;5.596;2023-02-26T09:08:23;10.85;;;2.70;;
66633;SDS011;53546;52.184;5.596;2023-02-26T09:10:48;10.02;;;2.33;;
66633;SDS011;53546;52.184;5.596;2023-02-26T09:13:14;7.13;;;2.58;;
66633;SDS011;53546;52.184;5.596;2023-02-26T09:15:39;8.88;;;2.55;;
66633;SDS011;53546;52.184;5.596;2023-02-26T09:18:05;7.72;;;2.67;;
66633;SDS011;53546;52.184;5.596;2023-02-26T09:20:31;6.93;;;2.15;;
66633;SDS011;53546;52.184;5.596;2023-02-26T09:22:56;6.40;;;2.17;;
66633;SDS011;53546;52.184;5.596;2023-02-26T09:25:22;3.20;;;1.63;;
66633;SDS011;53546;52.184;5.596;2023-02-26T09:27:47;6.63;;;1.90;;
66633;SDS011;53546;52.184;5.596;2023-02-26T09:30:13;4.20;;;1.42;;
66633;SDS011;53546;52.184;5.596;2023-02-26T09:32:39;3.85;;;1.48;;
66633;SDS011;53546;52.184;5.596;2023-02-26T09:35:05;1.90;;;1.30;;
66633;SDS011;53546;52.184;5.596;2023-02-26T09:37:31;3.85;;;1.63;;
66633;SDS011;53546;52.184;5.596;2023-02-26T09:39:56;3.13;;;1.42;;
66633;SDS011;53546;52.184;5.596;2023-02-26T09:44:50;3.80;;;1.35;;
66633;SDS011;53546;52.184;5.596;2023-02-26T09:49:55;3.92;;;1.40;;
66633;SDS011;53546;52.184;5.596;2023-02-26T09:54:51;4.93;;;1.40;;
66633;SDS011;53546;52.184;5.596;2023-02-26T09:57:32;5.88;;;1.42;;
66633;SDS011;53546;52.184;5.596;2023-02-26T09:59:59;2.63;;;1.35;;
66633;SDS011;53546;52.184;5.596;2023-02-26T10:02:33;5.15;;;1.50;;
66633;SDS011;53546;52.184;5.596;2023-02-26T10:05:19;3.45;;;1.50;;
66633;SDS011;53546;52.184;5.596;2023-02-26T10:08:10;3.08;;;1.17;;
66633;SDS011;53546;52.184;5.596;2023-02-26T10:13:33;1.33;;;0.93;;
66633;SDS011;53546;52.184;5.596;2023-02-26T10:16:04;2.63;;;1.38;;
66633;SDS011;53546;52.184;5.596;2023-02-26T10:18:34;3.03;;;1.30;;
66633;SDS011;53546;52.184;5.596;2023-02-26T10:23:48;2.13;;;1.30;;
66633;SDS011;53546;52.184;5.596;2023-02-26T10:34:15;2.22;;;1.23;;
66633;SDS011;53546;52.184;5.596;2023-02-26T10:39:46;3.17;;;1.55;;
66633;SDS011;53546;52.184;5.596;2023-02-26T10:42:16;2.15;;;1.40;;
66633;SDS011;53546;52.184;5.596;2023-02-26T10:49:52;4.80;;;1.27;;
66633;SDS011;53546;52.184;5.596;2023-02-26T10:52:20;2.92;;;1.30;;
66633;SDS011;53546;52.184;5.596;2023-02-26T10:54:54;3.58;;;1.10;;
66633;SDS011;53546;52.184;5.596;2023-02-26T10:57:27;4.53;;;1.30;;
66633;SDS011;53546;52.184;5.596;2023-02-26T10:59:59;3.60;;;1.38;;
66633;SDS011;53546;52.184;5.596;2023-02-26T11:02:35;4.18;;;1.25;;
66633;SDS011;53546;52.184;5.596;2023-02-26T11:05:14;2.17;;;1.35;;
66633;SDS011;53546;52.184;5.596;2023-02-26T11:08:09;2.35;;;1.50;;
66633;SDS011;53546;52.184;5.596;2023-02-26T11:10:40;5.72;;;2.08;;
66633;SDS011;53546;52.184;5.596;2023-02-26T11:13:09;7.75;;;1.98;;
66633;SDS011;53546;52.184;5.596;2023-02-26T11:15:34;8.65;;;1.90;;
66633;SDS011;53546;52.184;5.596;2023-02-26T11:18:00;9.00;;;1.55;;
66633;SDS011;53546;52.184;5.596;2023-02-26T11:20:30;5.18;;;1.48;;
66633;SDS011;53546;52.184;5.596;2023-02-26T11:22:59;4.33;;;1.60;;
66633;SDS011;53546;52.184;5.596;2023-02-26T11:25:27;4.75;;;1.60;;
66633;SDS011;53546;52.184;5.596;2023-02-26T11:28:04;5.13;;;1.17;;
66633;SDS011;53546;52.184;5.596;2023-02-26T11:30:36;2.88;;;1.23;;
66633;SDS011;53546;52.184;5.596;2023-02-26T11:33:16;2.60;;;1.30;;
66633;SDS011;53546;52.184;5.596;2023-02-26T11:35:43;3.65;;;1.08;;
66633;SDS011;53546;52.184;5.596;2023-02-26T11:38:12;1.10;;;0.82;;
66633;SDS011;53546;52.184;5.596;2023-02-26T11:40:41;1.05;;;0.95;;
66633;SDS011;53546;52.184;5.596;2023-02-26T11:43:12;3.38;;;1.10;;
66633;SDS011;53546;52.184;5.596;2023-02-26T11:45:41;1.48;;;0.80;;
66633;SDS011;53546;52.184;5.596;2023-02-26T11:48:12;2.88;;;1.08;;
66633;SDS011;53546;52.184;5.596;2023-02-26T11:50:40;1.65;;;0.80;;
66633;SDS011;53546;52.184;5.596;2023-02-26T11:53:15;2.78;;;0.82;;
66633;SDS011;53546;52.184;5.596;2023-02-26T11:55:59;1.73;;;0.98;;
66633;SDS011;53546;52.184;5.596;2023-02-26T11:58:34;3.88;;;1.35;;
66633;SDS011;53546;52.184;5.596;2023-02-26T12:01:01;2.05;;;0.95;;
66633;SDS011;53546;52.184;5.596;2023-02-26T12:03:27;2.47;;;0.73;;
66633;SDS011;53546;52.184;5.596;2023-02-26T12:05:56;0.60;;;0.55;;
66633;SDS011;53546;52.184;5.596;2023-02-26T12:08:32;5.50;;;0.98;;
66633;SDS011;53546;52.184;5.596;2023-02-26T12:30:57;4.03;;;1.35;;
66633;SDS011;53546;52.184;5.596;2023-02-26T12:36:57;3.60;;;1.70;;
66633;SDS011;53546;52.184;5.596;2023-02-26T12:48:00;3.78;;;1.60;;
66633;SDS011;53546;52.184;5.596;2023-02-26T12:50:54;3.72;;;1.60;;
66633;SDS011;53546;52.184;5.596;2023-02-26T13:15:24;3.33;;;1.55;;
66633;SDS011;53546;52.184;5.596;2023-02-26T13:18:21;1.35;;;1.15;;
66633;SDS011;53546;52.184;5.596;2023-02-26T13:21:09;3.35;;;1.50;;
66633;SDS011;53546;52.184;5.596;2023-02-26T13:23:45;1.77;;;1.40;;
66633;SDS011;53546;52.184;5.596;2023-02-26T13:26:14;2.97;;;1.75;;
66633;SDS011;53546;52.184;5.596;2023-02-26T13:28:46;2.33;;;1.30;;
66633;SDS011;53546;52.184;5.596;2023-02-26T13:31:14;1.35;;;1.13;;
66633;SDS011;53546;52.184;5.596;2023-02-26T13:33:48;1.52;;;1.20;;
66633;SDS011;53546;52.184;5.596;2023-02-26T13:36:15;3.95;;;1.60;;
66633;SDS011;53546;52.184;5.596;2023-02-26T13:38:47;2.55;;;1.30;;
66633;SDS011;53546;52.184;5.596;2023-02-26T13:51:58;1.88;;;1.20;;
66633;SDS011;53546;52.184;5.596;2023-02-26T13:54:28;2.92;;;1.15;;
66633;SDS011;53546;52.184;5.596;2023-02-26T13:59:59;1.70;;;1.02;;
66633;SDS011;53546;52.184;5.596;2023-02-26T14:02:50;1.27;;;0.98;;
66633;SDS011;53546;52.184;5.596;2023-02-26T14:05:28;0.85;;;0.85;;
66633;SDS011;53546;52.184;5.596;2023-02-26T14:10:32;1.35;;;0.90;;
66633;SDS011;53546;52.184;5.596;2023-02-26T14:13:09;0.77;;;0.77;;
66633;SDS011;53546;52.184;5.596;2023-02-26T14:21:27;1.58;;;0.90;;
66633;SDS011;53546;52.184;5.596;2023-02-26T14:26:28;3.33;;;0.90;;
66633;SDS011;53546;52.184;5.596;2023-02-26T14:34:52;1.13;;;0.75;;
66633;SDS011;53546;52.184;5.596;2023-02-26T14:37:23;1.05;;;0.80;;
66633;SDS011;53546;52.184;5.596;2023-02-26T14:39:54;1.08;;;0.90;;
66633;SDS011;53546;52.184;5.596;2023-02-26T14:42:26;0.88;;;0.73;;
66633;SDS011;53546;52.184;5.596;2023-02-26T14:45:43;0.93;;;0.70;;
66633;SDS011;53546;52.184;5.596;2023-02-26T14:47:54;1.95;;;0.60;;
66633;SDS011;53546;52.184;5.596;2023-02-26T14:50:24;0.70;;;0.60;;
66633;SDS011;53546;52.184;5.596;2023-02-26T14:58:52;0.47;;;0.47;;
66633;SDS011;53546;52.184;5.596;2023-02-26T15:04:30;0.70;;;0.52;;
66633;SDS011;53546;52.184;5.596;2023-02-26T15:22:36;2.15;;;0.65;;
66633;SDS011;53546;52.184;5.596;2023-02-26T15:25:46;1.75;;;0.60;;
66633;SDS011;53546;52.184;5.596;2023-02-26T15:28:06;0.50;;;0.50;;
66633;SDS011;53546;52.184;5.596;2023-02-26T15:30:35;2.72;;;0.70;;
66633;SDS011;53546;52.184;5.596;2023-02-26T15:33:02;1.77;;;0.60;;
66633;SDS011;53546;52.184;5.596;2023-02-26T15:35:29;0.57;;;0.57;;
66633;SDS011;53546;52.184;5.596;2023-02-26T15:37:57;1.33;;;0.90;;
66633;SDS011;53546;52.184;5.596;2023-02-26T15:40:25;1.25;;;0.60;;
66633;SDS011;53546;52.184;5.596;2023-02-26T15:42:54;1.58;;;0.60;;
66633;SDS011;53546;52.184;5.596;2023-02-26T15:45:23;0.65;;;0.60;;
66633;SDS011;53546;52.184;5.596;2023-02-26T15:47:55;0.98;;;0.70;;
66633;SDS011;53546;52.184;5.596;2023-02-26T15:50:24;1.02;;;0.77;;
66633;SDS011;53546;52.184;5.596;2023-02-26T15:52:54;0.50;;;0.47;;
66633;SDS011;53546;52.184;5.596;2023-02-26T15:55:22;0.93;;;0.70;;
66633;SDS011;53546;52.184;5.596;2023-02-26T15:57:48;0.60;;;0.60;;
66633;SDS011;53546;52.184;5.596;2023-02-26T16:00:18;0.73;;;0.70;;
66633;SDS011;53546;52.184;5.596;2023-02-26T16:02:49;0.45;;;0.45;;
66633;SDS011;53546;52.184;5.596;2023-02-26T16:05:15;0.50;;;0.50;;
66633;SDS011;53546;52.184;5.596;2023-02-26T16:07:42;0.50;;;0.50;;
66633;SDS011;53546;52.184;5.596;2023-02-26T16:10:14;0.77;;;0.52;;
66633;SDS011;53546;52.184;5.596;2023-02-26T16:13:02;1.40;;;0.68;;
66633;SDS011;53546;52.184;5.596;2023-02-26T16:15:30;4.28;;;0.90;;
66633;SDS011;53546;52.184;5.596;2023-02-26T16:17:57;1.73;;;0.90;;
66633;SDS011;53546;52.184;5.596;2023-02-26T16:20:24;1.92;;;0.70;;
66633;SDS011;53546;52.184;5.596;2023-02-26T16:22:57;1.60;;;0.80;;
66633;SDS011;53546;52.184;5.596;2023-02-26T16:27:59;0.47;;;0.43;;
66633;SDS011;53546;52.184;5.596;2023-02-26T16:30:34;0.60;;;0.60;;
66633;SDS011;53546;52.184;5.596;2023-02-26T16:33:01;0.60;;;0.60;;
66633;SDS011;53546;52.184;5.596;2023-02-26T16:35:30;0.70;;;0.70;;
66633;SDS011;53546;52.184;5.596;2023-02-26T16:37:59;1.05;;;0.80;;
66633;SDS011;53546;52.184;5.596;2023-02-26T16:40:26;0.80;;;0.80;;
66633;SDS011;53546;52.184;5.596;2023-02-26T16:45:58;1.10;;;1.00;;
66633;SDS011;53546;52.184;5.596;2023-02-26T16:48:26;1.20;;;0.90;;
66633;SDS011;53546;52.184;5.596;2023-02-26T16:50:55;2.05;;;1.10;;
66633;SDS011;53546;52.184;5.596;2023-02-26T16:53:28;8.05;;;1.20;;
66633;SDS011;53546;52.184;5.596;2023-02-26T16:55:58;2.20;;;1.15;;
66633;SDS011;53546;52.184;5.596;2023-02-26T16:58:24;3.72;;;1.20;;
66633;SDS011;53546;52.184;5.596;2023-02-26T17:00:51;1.35;;;1.02;;
66633;SDS011;53546;52.184;5.596;2023-02-26T17:03:22;3.35;;;1.40;;
66633;SDS011;53546;52.184;5.596;2023-02-26T17:05:56;2.05;;;1.67;;
66633;SDS011;53546;52.184;5.596;2023-02-26T17:08:31;2.08;;;1.40;;
66633;SDS011;53546;52.184;5.596;2023-02-26T17:11:07;4.13;;;1.50;;
66633;SDS011;53546;52.184;5.596;2023-02-26T17:13:34;3.33;;;1.63;;
66633;SDS011;53546;52.184;5.596;2023-02-26T17:16:02;4.43;;;1.55;;
66633;SDS011;53546;52.184;5.596;2023-02-26T17:18:29;4.43;;;1.70;;
66633;SDS011;53546;52.184;5.596;2023-02-26T17:20:54;3.63;;;1.73;;
66633;SDS011;53546;52.184;5.596;2023-02-26T17:23:20;2.92;;;1.73;;
66633;SDS011;53546;52.184;5.596;2023-02-26T17:25:49;6.88;;;1.85;;
66633;SDS011;53546;52.184;5.596;2023-02-26T17:28:22;4.25;;;1.67;;
66633;SDS011;53546;52.184;5.596;2023-02-26T17:30:50;3.80;;;2.10;;
66633;SDS011;53546;52.184;5.596;2023-02-26T17:33:16;4.88;;;1.75;;
66633;SDS011;53546;52.184;5.596;2023-02-26T17:35:41;4.53;;;1.92;;
66633;SDS011;53546;52.184;5.596;2023-02-26T17:38:10;4.18;;;1.60;;
66633;SDS011;53546;52.184;5.596;2023-02-26T17:40:39;3.05;;;1.60;;
66633;SDS011;53546;52.184;5.596;2023-02-26T17:43:06;3.78;;;1.65;;
66633;SDS011;53546;52.184;5.596;2023-02-26T17:45:34;5.82;;;1.75;;
66633;SDS011;53546;52.184;5.596;2023-02-26T17:48:00;2.22;;;1.45;;
66633;SDS011;53546;52.184;5.596;2023-02-26T17:50:37;2.95;;;1.50;;
66633;SDS011;53546;52.184;5.596;2023-02-26T17:53:07;4.30;;;1.70;;
66633;SDS011;53546;52.184;5.596;2023-02-26T17:55:33;3.13;;;1.42;;
66633;SDS011;53546;52.184;5.596;2023-02-26T17:58:01;4.47;;;1.77;;
66633;SDS011;53546;52.184;5.596;2023-02-26T18:00:27;2.65;;;1.50;;
66633;SDS011;53546;52.184;5.596;2023-02-26T18:02:52;2.40;;;1.35;;
66633;SDS011;53546;52.184;5.596;2023-02-26T18:05:18;2.22;;;1.38;;
66633;SDS011;53546;52.184;5.596;2023-02-26T18:07:44;2.95;;;1.55;;
66633;SDS011;53546;52.184;5.596;2023-02-26T18:10:15;2.70;;;1.50;;
66633;SDS011;53546;52.184;5.596;2023-02-26T18:12:45;2.83;;;1.40;;